createdAt,value
2023-05-12T00:02:47.171Z,10.06
2023-05-12T00:05:48.654Z,10.08
2023-05-12T00:08:50.847Z,10.01
2023-05-12T00:11:52.493Z,10.03
2023-05-12T00:14:54.104Z,10.08
2023-05-12T00:17:55.688Z,10.08
2023-05-12T00:20:57.303Z,10.06
2023-05-12T00:23:58.798Z,10.03
2023-05-12T00:27:00.797Z,10.07
2023-05-12T00:30:02.360Z,10.09
2023-05-12T00:33:04.891Z,10.14
2023-05-12T00:36:07.046Z,10.14
2023-05-12T00:39:08.526Z,10.11
2023-05-12T00:42:11.916Z,10.15
2023-05-12T00:45:13.470Z,10.19
2023-05-12T00:48:15.458Z,10.15
2023-05-12T00:51:17.309Z,10.16
2023-05-12T00:54:18.974Z,10.15
2023-05-12T00:57:22.678Z,10.18
2023-05-12T01:00:24.297Z,10.20
2023-05-12T01:03:26.258Z,10.15
2023-05-12T01:07:05.576Z,10.18
2023-05-12T01:10:21.810Z,10.15
2023-05-12T01:13:23.652Z,10.15
2023-05-12T01:16:31.295Z,10.16
2023-05-12T01:19:52.019Z,10.22
2023-05-12T01:22:55.238Z,10.25
2023-05-12T01:26:06.642Z,10.27
2023-05-12T01:29:08.585Z,10.25
2023-05-12T01:32:10.747Z,10.25
2023-05-12T01:35:12.488Z,10.25
2023-05-12T01:38:19.668Z,10.27
2023-05-12T01:41:21.553Z,10.19
2023-05-12T01:44:23.061Z,10.12
2023-05-12T01:47:24.608Z,10.18
2023-05-12T01:50:32.595Z,10.19
2023-05-12T01:53:35.342Z,10.22
2023-05-12T01:56:37.115Z,10.24
2023-05-12T01:59:38.650Z,10.21
2023-05-12T02:02:43.220Z,10.20
2023-05-12T02:05:46.483Z,10.21
2023-05-12T02:08:48.453Z,10.26
2023-05-12T02:11:50.546Z,10.30
2023-05-12T02:14:52.096Z,10.17
2023-05-12T02:17:54.427Z,10.15
2023-05-12T02:20:57.220Z,10.17
2023-05-12T02:23:58.716Z,10.18
2023-05-12T02:27:00.213Z,10.18
2023-05-12T02:30:02.022Z,10.17
2023-05-12T02:33:06.819Z,10.23
2023-05-12T02:36:08.930Z,10.21
2023-05-12T02:39:10.426Z,10.20
2023-05-12T02:42:11.951Z,10.21
2023-05-12T02:45:13.772Z,10.22
2023-05-12T02:48:15.581Z,10.21
2023-05-12T02:51:17.106Z,10.24
2023-05-12T02:54:18.663Z,10.21
2023-05-12T02:57:20.314Z,10.24
2023-05-12T03:00:22.175Z,10.25
2023-05-12T03:03:23.921Z,10.26
2023-05-12T03:06:25.703Z,10.25
2023-05-12T03:09:27.567Z,10.20
2023-05-12T03:12:29.635Z,10.20
2023-05-12T03:15:31.313Z,10.18
2023-05-12T03:18:33.067Z,10.15
2023-05-12T03:21:34.776Z,10.12
2023-05-12T03:24:36.737Z,10.13
2023-05-12T03:27:38.287Z,10.12
2023-05-12T03:30:40.472Z,-144.80
2023-05-12T03:33:41.994Z,-144.80
